createdAt,value
2023-03-16T00:02:27.176Z,66.48
2023-03-16T00:04:55.730Z,66.73
2023-03-16T00:07:24.862Z,66.94
2023-03-16T00:09:54.883Z,66.60
2023-03-16T00:12:23.914Z,67.07
2023-03-16T00:14:54.664Z,67.28
2023-03-16T00:17:23.162Z,67.09
2023-03-16T00:19:55.424Z,67.60
2023-03-16T00:22:24.596Z,67.72
2023-03-16T00:24:53.466Z,67.67
2023-03-16T00:27:23.075Z,67.73
2023-03-16T00:29:56.264Z,67.38
2023-03-16T00:32:26.689Z,67.57
2023-03-16T00:34:56.189Z,67.67
2023-03-16T00:37:25.485Z,67.88
2023-03-16T00:39:56.694Z,67.94
2023-03-16T00:42:27.856Z,67.16
2023-03-16T00:44:58.478Z,67.55
2023-03-16T00:47:28.603Z,68.13
2023-03-16T00:49:57.370Z,67.79
2023-03-16T00:52:27.778Z,67.76
2023-03-16T00:54:56.738Z,67.04
2023-03-16T00:57:27.952Z,67.07
2023-03-16T00:59:59.476Z,67.00
2023-03-16T01:02:28.464Z,67.77
2023-03-16T01:04:56.848Z,66.91
2023-03-16T01:07:27.342Z,66.78
2023-03-16T01:09:55.873Z,67.39
2023-03-16T01:12:24.315Z,66.66
2023-03-16T01:14:52.735Z,67.61
2023-03-16T01:17:23.333Z,67.64
2023-03-16T01:19:52.026Z,67.54
2023-03-16T01:22:21.943Z,67.67
2023-03-16T01:24:50.454Z,66.67
2023-03-16T01:27:18.867Z,67.54
2023-03-16T01:29:47.326Z,67.71
2023-03-16T01:32:16.014Z,67.78
2023-03-16T01:34:46.275Z,67.29
2023-03-16T01:37:15.443Z,67.69
2023-03-16T01:39:54.924Z,67.53
2023-03-16T01:42:24.540Z,68.29
2023-03-16T01:44:55.842Z,68.25
2023-03-16T01:47:29.257Z,67.88
2023-03-16T01:49:59.394Z,68.21
2023-03-16T01:52:34.238Z,68.79
2023-03-16T01:55:05.434Z,69.24
2023-03-16T01:57:37.255Z,69.29
2023-03-16T02:00:11.044Z,68.98
2023-03-16T02:02:56.469Z,68.85
2023-03-16T02:05:38.169Z,69.01
2023-03-16T02:08:08.046Z,69.52
2023-03-16T02:10:37.449Z,69.14
2023-03-16T02:13:06.090Z,69.86
2023-03-16T02:15:36.412Z,69.91
2023-03-16T02:18:05.954Z,69.64
2023-03-16T02:20:40.660Z,70.18
2023-03-16T02:23:18.637Z,70.15
2023-03-16T02:25:54.790Z,69.40
2023-03-16T02:28:29.543Z,70.46
2023-03-16T02:31:00.027Z,70.53
2023-03-16T02:33:30.374Z,69.97
2023-03-16T02:35:58.999Z,70.16
2023-03-16T02:38:27.457Z,70.83
2023-03-16T02:40:59.476Z,70.66
2023-03-16T02:43:34.463Z,70.79
2023-03-16T02:46:12.036Z,71.26
2023-03-16T02:48:44.411Z,70.46
2023-03-16T02:51:12.968Z,70.79
2023-03-16T02:53:41.358Z,70.73
2023-03-16T02:56:10.267Z,70.47
2023-03-16T02:58:39.136Z,70.66
2023-03-16T03:01:15.314Z,70.77
2023-03-16T03:03:44.024Z,70.61
2023-03-16T03:06:12.407Z,70.01
2023-03-16T03:08:42.869Z,69.88
2023-03-16T03:11:11.818Z,70.70
2023-03-16T03:13:40.346Z,69.79
2023-03-16T03:16:16.306Z,70.57
2023-03-16T03:18:44.895Z,69.58
2023-03-16T03:21:13.310Z,69.91
2023-03-16T03:23:42.365Z,70.16
2023-03-16T03:26:10.748Z,68.91
2023-03-16T03:28:40.043Z,68.93
2023-03-16T03:31:08.452Z,69.31
2023-03-16T03:33:38.402Z,68.75
2023-03-16T03:36:07.166Z,68.91
2023-03-16T03:38:38.670Z,69.66
2023-03-16T03:41:09.015Z,69.68
2023-03-16T03:43:39.931Z,69.17
2023-03-16T03:46:14.270Z,70.16
2023-03-16T03:48:44.351Z,70.23
2023-03-16T03:51:12.992Z,69.71
2023-03-16T03:53:47.459Z,70.13
2023-03-16T03:56:15.855Z,70.49
2023-03-16T03:58:44.224Z,70.53
2023-03-16T04:01:16.189Z,70.28
2023-03-16T04:03:46.391Z,70.46
2023-03-16T04:06:16.829Z,70.14
2023-03-16T04:08:45.429Z,70.18
2023-03-16T04:11:17.486Z,70.22
2023-03-16T04:13:45.967Z,70.49
2023-03-16T04:16:17.976Z,70.92
2023-03-16T04:18:50.509Z,70.32
2023-03-16T04:21:20.333Z,71.13
2023-03-16T04:23:49.816Z,71.39
2023-03-16T04:26:20.148Z,71.74
2023-03-16T04:28:49.969Z,71.74
2023-03-16T04:31:21.207Z,71.51
2023-03-16T04:33:54.924Z,71.94
2023-03-16T04:36:25.498Z,71.40
2023-03-16T04:38:55.339Z,71.82
2023-03-16T04:41:25.589Z,71.92
2023-03-16T04:44:02.212Z,71.61
2023-03-16T04:46:30.888Z,71.76
2023-03-16T04:49:04.399Z,72.15
2023-03-16T04:51:32.966Z,72.29
2023-03-16T04:54:08.844Z,71.96
2023-03-16T04:56:42.420Z,72.05
2023-03-16T04:59:18.577Z,71.60
2023-03-16T05:01:53.965Z,71.92
2023-03-16T05:04:24.939Z,72.43
2023-03-16T05:06:53.526Z,71.93
2023-03-16T05:09:27.300Z,72.23
2023-03-16T05:11:55.797Z,71.81
2023-03-16T05:14:24.156Z,72.08
2023-03-16T05:17:04.972Z,72.99
2023-03-16T05:19:36.147Z,72.53
2023-03-16T05:22:04.787Z,72.65
2023-03-16T05:24:33.390Z,73.15
2023-03-16T05:27:03.848Z,72.80
2023-03-16T05:29:32.471Z,73.25
2023-03-16T05:32:01.130Z,72.76
2023-03-16T05:34:31.944Z,73.19
2023-03-16T05:37:02.011Z,73.06
2023-03-16T05:39:31.189Z,73.19
2023-03-16T05:41:59.698Z,72.55
2023-03-16T05:44:39.959Z,72.73
2023-03-16T05:47:16.361Z,72.73
2023-03-16T05:49:48.702Z,72.12
2023-03-16T05:52:29.645Z,72.29
2023-03-16T05:55:01.122Z,72.84
2023-03-16T05:57:30.107Z,72.39
2023-03-16T06:00:02.121Z,71.70
2023-03-16T06:02:41.050Z,71.43
2023-03-16T06:05:10.592Z,71.41
2023-03-16T06:07:44.497Z,71.60
2023-03-16T06:10:14.161Z,71.94
2023-03-16T06:12:42.710Z,71.38
2023-03-16T06:15:11.687Z,71.37
2023-03-16T06:17:41.113Z,71.51
2023-03-16T06:20:13.163Z,71.01
2023-03-16T06:22:45.825Z,70.61
2023-03-16T06:25:15.469Z,71.02
2023-03-16T06:27:45.917Z,71.08
2023-03-16T06:30:18.396Z,70.41
2023-03-16T06:32:46.940Z,71.27
2023-03-16T06:35:16.343Z,70.91
2023-03-16T06:38:03.264Z,70.83
2023-03-16T06:40:53.204Z,70.38
2023-03-16T06:43:23.102Z,69.84
2023-03-16T06:45:52.440Z,69.28
2023-03-16T06:48:22.163Z,69.44
2023-03-16T06:50:50.785Z,68.50
2023-03-16T06:53:25.586Z,67.86
2023-03-16T06:55:55.711Z,67.47
2023-03-16T06:58:24.386Z,66.83
2023-03-16T07:00:54.362Z,66.20
2023-03-16T07:03:22.890Z,65.04
2023-03-16T07:05:57.381Z,64.37
2023-03-16T07:08:27.436Z,63.20
2023-03-16T07:10:56.004Z,62.46
2023-03-16T07:13:24.436Z,61.38
2023-03-16T07:15:53.394Z,60.73
2023-03-16T07:18:26.325Z,59.92
2023-03-16T07:20:56.039Z,59.21
2023-03-16T07:23:28.958Z,59.30
2023-03-16T07:26:04.148Z,59.52
2023-03-16T07:28:35.296Z,58.60
2023-03-16T07:31:05.237Z,57.50
2023-03-16T07:33:40.198Z,57.28
2023-03-16T07:36:12.612Z,56.58
2023-03-16T07:38:48.654Z,56.24
2023-03-16T07:41:17.310Z,55.52
2023-03-16T07:43:45.624Z,54.33
2023-03-16T07:46:16.728Z,54.07
2023-03-16T07:48:46.078Z,54.61
2023-03-16T07:51:15.692Z,54.19
2023-03-16T07:53:50.602Z,53.80
2023-03-16T07:56:31.619Z,52.83
2023-03-16T07:59:09.369Z,51.46
2023-03-16T08:01:38.724Z,50.83
2023-03-16T08:04:07.358Z,50.58
2023-03-16T08:06:35.739Z,49.88
2023-03-16T08:09:06.277Z,49.70
2023-03-16T08:11:38.310Z,49.24
2023-03-16T08:14:07.579Z,49.30
2023-03-16T08:16:47.441Z,49.19
2023-03-16T08:19:18.054Z,49.09
2023-03-16T08:22:00.769Z,49.26
2023-03-16T08:24:38.982Z,49.60
2023-03-16T08:27:09.994Z,50.06
2023-03-16T08:29:41.455Z,50.08
2023-03-16T08:32:14.720Z,49.57
2023-03-16T08:34:46.556Z,49.60
2023-03-16T08:37:16.665Z,47.98
2023-03-16T08:39:52.014Z,46.43
2023-03-16T08:42:21.224Z,46.68
2023-03-16T08:44:56.487Z,46.56
2023-03-16T08:47:26.545Z,46.58
2023-03-16T08:49:56.251Z,45.60
2023-03-16T08:52:24.591Z,45.66
2023-03-16T08:55:02.864Z,45.61
2023-03-16T08:57:33.126Z,44.93
2023-03-16T09:00:01.650Z,44.43
2023-03-16T09:02:30.191Z,44.10
2023-03-16T09:04:59.205Z,43.58
2023-03-16T09:07:28.435Z,43.63
2023-03-16T09:09:58.464Z,43.63
2023-03-16T09:12:27.373Z,43.30
2023-03-16T09:14:56.498Z,42.84
2023-03-16T09:17:24.932Z,42.58
2023-03-16T09:19:56.220Z,42.47
2023-03-16T09:22:30.332Z,42.46
2023-03-16T09:25:00.304Z,41.20
2023-03-16T09:27:28.761Z,41.87
2023-03-16T09:29:59.625Z,40.99
2023-03-16T09:32:29.108Z,41.11
2023-03-16T09:34:57.702Z,40.13
2023-03-16T09:37:27.784Z,40.67
2023-03-16T09:40:03.197Z,39.99
2023-03-16T09:42:39.352Z,40.14
2023-03-16T09:45:11.004Z,40.82
2023-03-16T09:47:40.282Z,40.04
2023-03-16T09:50:11.099Z,40.13
2023-03-16T09:52:44.978Z,40.33
2023-03-16T09:55:18.080Z,40.51
2023-03-16T09:57:48.188Z,39.94
2023-03-16T10:00:19.528Z,40.23
2023-03-16T10:02:58.794Z,40.41
2023-03-16T10:05:28.527Z,39.70
2023-03-16T10:08:02.300Z,39.08
2023-03-16T10:10:41.370Z,39.06
2023-03-16T10:13:18.840Z,39.52
2023-03-16T10:15:48.657Z,39.08
2023-03-16T10:18:18.946Z,38.83
2023-03-16T10:20:48.303Z,39.42
2023-03-16T10:23:19.018Z,38.93
2023-03-16T10:25:51.499Z,39.10
2023-03-16T10:28:22.529Z,38.21
2023-03-16T10:30:52.129Z,38.37
2023-03-16T10:33:26.147Z,38.43
2023-03-16T10:36:00.203Z,38.29
2023-03-16T10:38:38.857Z,38.09
2023-03-16T10:41:20.598Z,37.18
2023-03-16T10:43:52.245Z,38.01
2023-03-16T10:46:21.341Z,38.07
2023-03-16T10:48:54.895Z,38.62
2023-03-16T10:51:26.180Z,37.75
2023-03-16T10:53:55.144Z,37.15
2023-03-16T10:56:25.466Z,37.53
2023-03-16T10:58:56.648Z,37.00
2023-03-16T11:01:26.995Z,36.83
2023-03-16T11:03:57.283Z,37.03
2023-03-16T11:06:30.992Z,36.54
2023-03-16T11:09:05.906Z,35.83
2023-03-16T11:11:35.817Z,35.85
2023-03-16T11:14:06.056Z,36.19
2023-03-16T11:16:38.503Z,35.72
2023-03-16T11:19:15.206Z,35.34
2023-03-16T11:21:49.869Z,35.66
2023-03-16T11:24:21.248Z,35.57
2023-03-16T11:26:54.706Z,34.99
2023-03-16T11:29:28.992Z,34.63
2023-03-16T11:32:00.174Z,35.29
2023-03-16T11:34:29.637Z,36.44
2023-03-16T11:37:02.407Z,35.43
2023-03-16T11:39:40.862Z,34.58
2023-03-16T11:42:21.991Z,35.67
2023-03-16T11:44:57.098Z,35.01
2023-03-16T11:47:43.377Z,34.16
2023-03-16T11:50:14.439Z,34.90
2023-03-16T11:52:47.240Z,34.55
2023-03-16T11:55:24.934Z,33.61
2023-03-16T11:57:58.913Z,33.64
2023-03-16T12:00:33.322Z,34.40
2023-03-16T12:03:17.717Z,34.11
2023-03-16T12:05:56.666Z,33.96
2023-03-16T12:08:36.465Z,34.43
2023-03-16T12:11:07.941Z,33.49
2023-03-16T12:13:46.110Z,34.31
2023-03-16T12:16:20.001Z,34.22
2023-03-16T12:18:50.530Z,34.42
2023-03-16T12:21:21.299Z,34.25
2023-03-16T12:23:52.632Z,33.30
2023-03-16T12:26:22.444Z,33.72
2023-03-16T12:28:52.061Z,32.86
2023-03-16T12:31:24.033Z,33.13
2023-03-16T12:33:59.688Z,33.39
2023-03-16T12:36:39.049Z,33.42
2023-03-16T12:39:09.435Z,33.43
2023-03-16T12:41:42.670Z,33.31
2023-03-16T12:44:17.587Z,33.42
2023-03-16T12:46:57.882Z,33.10
2023-03-16T12:49:29.014Z,33.00
2023-03-16T12:52:01.000Z,33.48
2023-03-16T12:54:29.995Z,32.95
2023-03-16T12:57:02.150Z,32.39
2023-03-16T12:59:39.175Z,32.85
2023-03-16T13:02:13.203Z,32.36
2023-03-16T13:04:44.608Z,32.36
2023-03-16T13:07:18.939Z,32.32
2023-03-16T13:09:51.049Z,32.28
2023-03-16T13:12:31.162Z,32.89
2023-03-16T13:14:59.885Z,32.75
2023-03-16T13:17:31.424Z,32.57
2023-03-16T13:20:06.967Z,32.38
2023-03-16T13:22:46.761Z,32.96
2023-03-16T13:25:18.248Z,32.65
2023-03-16T13:27:49.526Z,32.66
2023-03-16T13:30:19.679Z,33.07
2023-03-16T13:32:49.677Z,33.04
2023-03-16T13:35:19.619Z,32.76
2023-03-16T13:37:48.452Z,32.67
2023-03-16T13:40:19.681Z,32.43
2023-03-16T13:42:49.943Z,31.50
2023-03-16T13:45:21.561Z,31.62
2023-03-16T13:47:51.914Z,32.20
2023-03-16T13:50:20.899Z,31.96
2023-03-16T13:52:56.960Z,32.50
2023-03-16T13:55:28.849Z,32.97
2023-03-16T13:57:57.570Z,32.45
2023-03-16T14:00:28.236Z,33.09
2023-03-16T14:02:59.444Z,33.07
2023-03-16T14:05:29.652Z,32.25
2023-03-16T14:08:01.195Z,32.10
2023-03-16T14:10:33.607Z,31.87
2023-03-16T14:13:09.369Z,32.22
2023-03-16T14:15:38.840Z,32.18
2023-03-16T14:18:14.428Z,32.31
2023-03-16T14:20:42.957Z,32.27
2023-03-16T14:23:19.650Z,32.59
2023-03-16T14:25:49.265Z,31.87
2023-03-16T14:28:18.853Z,32.08
2023-03-16T14:30:53.841Z,32.47
2023-03-16T14:33:31.177Z,33.19
2023-03-16T14:36:00.897Z,32.08
2023-03-16T14:38:32.271Z,32.22
2023-03-16T14:41:04.806Z,31.85
2023-03-16T14:43:34.298Z,32.38
2023-03-16T14:46:05.780Z,31.92
2023-03-16T14:48:36.690Z,32.71
2023-03-16T14:51:06.664Z,32.85
2023-03-16T14:53:35.032Z,33.08
2023-03-16T14:56:03.988Z,33.02
2023-03-16T14:58:34.494Z,33.09
2023-03-16T15:01:04.300Z,33.10
2023-03-16T15:03:35.795Z,33.56
2023-03-16T15:06:06.057Z,33.36
2023-03-16T15:08:43.669Z,33.61
2023-03-16T15:11:12.241Z,33.06
2023-03-16T15:14:04.529Z,33.12
2023-03-16T15:16:34.799Z,32.72
2023-03-16T15:19:03.474Z,33.23
2023-03-16T15:21:33.301Z,33.28
2023-03-16T15:24:01.720Z,33.69
2023-03-16T15:26:31.009Z,33.28
2023-03-16T15:28:59.770Z,33.33
2023-03-16T15:31:28.260Z,34.27
2023-03-16T15:33:56.813Z,34.20
2023-03-16T15:36:25.325Z,34.39
2023-03-16T15:38:57.066Z,34.95
2023-03-16T15:41:30.141Z,36.12
2023-03-16T15:44:01.094Z,36.60
2023-03-16T15:46:29.632Z,36.69
2023-03-16T15:48:58.424Z,36.96
2023-03-16T15:51:29.139Z,37.29
2023-03-16T15:54:01.258Z,36.90
2023-03-16T15:56:32.341Z,37.19
2023-03-16T15:59:04.007Z,36.90
2023-03-16T16:01:38.193Z,36.63
2023-03-16T16:04:09.569Z,36.67
2023-03-16T16:06:38.005Z,37.03
2023-03-16T16:09:08.095Z,36.49
2023-03-16T16:11:37.645Z,37.39
2023-03-16T16:14:06.477Z,36.90
2023-03-16T16:16:35.537Z,36.80
2023-03-16T16:19:04.052Z,37.44
2023-03-16T16:21:33.791Z,38.00
2023-03-16T16:24:03.276Z,37.62
2023-03-16T16:26:54.718Z,37.68
2023-03-16T16:29:25.042Z,38.36
2023-03-16T16:31:53.788Z,38.80
2023-03-16T16:34:24.979Z,39.33
2023-03-16T16:36:54.444Z,39.16
2023-03-16T16:39:23.237Z,39.48
2023-03-16T16:41:56.905Z,39.40
2023-03-16T16:44:27.629Z,39.95
2023-03-16T16:46:56.508Z,40.26
2023-03-16T16:49:26.207Z,40.39
2023-03-16T16:51:55.578Z,40.91
2023-03-16T16:54:25.732Z,40.92
2023-03-16T16:56:56.409Z,41.25
2023-03-16T16:59:26.412Z,42.01
2023-03-16T17:01:55.506Z,41.42
2023-03-16T17:04:25.620Z,41.49
2023-03-16T17:06:55.822Z,41.79
2023-03-16T17:09:25.054Z,42.16
2023-03-16T17:11:56.302Z,41.77
2023-03-16T17:14:28.563Z,41.67
2023-03-16T17:16:57.365Z,42.25
2023-03-16T17:19:27.691Z,42.37
2023-03-16T17:21:57.478Z,42.46
2023-03-16T17:24:26.462Z,42.84
2023-03-16T17:26:56.613Z,43.23
2023-03-16T17:29:29.156Z,43.54
2023-03-16T17:31:57.630Z,43.56
2023-03-16T17:34:27.471Z,43.27
2023-03-16T17:36:56.643Z,43.52
2023-03-16T17:39:26.389Z,44.66
2023-03-16T17:41:56.678Z,44.73
2023-03-16T17:44:27.028Z,45.12
2023-03-16T17:46:55.698Z,44.73
2023-03-16T17:49:28.768Z,45.18
2023-03-16T17:51:57.558Z,45.49
2023-03-16T17:54:26.275Z,45.63
2023-03-16T17:56:55.084Z,46.27
2023-03-16T17:59:24.174Z,46.94
2023-03-16T18:01:55.004Z,47.40
2023-03-16T18:04:24.965Z,47.53
2023-03-16T18:06:54.406Z,47.50
2023-03-16T18:09:22.841Z,47.62
2023-03-16T18:11:52.847Z,47.84
2023-03-16T18:14:26.575Z,48.11
2023-03-16T18:16:56.537Z,48.51
2023-03-16T18:19:26.393Z,49.05
2023-03-16T18:21:54.912Z,49.12
2023-03-16T18:24:26.968Z,49.59
2023-03-16T18:26:55.521Z,49.55
2023-03-16T18:29:24.181Z,50.04
2023-03-16T18:31:55.626Z,50.32
2023-03-16T18:34:27.610Z,50.71
2023-03-16T18:37:00.054Z,50.47
2023-03-16T18:39:28.661Z,51.01
2023-03-16T18:41:57.103Z,51.37
2023-03-16T18:44:26.573Z,51.67
2023-03-16T18:46:58.481Z,52.31
2023-03-16T18:49:31.068Z,52.81
2023-03-16T18:51:59.480Z,53.08
2023-03-16T18:54:30.891Z,53.15
2023-03-16T18:56:59.940Z,53.50
2023-03-16T18:59:28.530Z,54.08
2023-03-16T19:01:58.366Z,53.50
2023-03-16T19:04:27.938Z,54.22
2023-03-16T19:06:58.129Z,54.47
2023-03-16T19:09:28.126Z,54.53
2023-03-16T19:11:56.639Z,54.65
2023-03-16T19:14:27.317Z,54.36
2023-03-16T19:16:56.473Z,55.18
2023-03-16T19:19:25.124Z,54.94
2023-03-16T19:21:54.859Z,55.82
2023-03-16T19:24:26.785Z,54.88
2023-03-16T19:26:56.198Z,54.85
2023-03-16T19:29:29.242Z,54.83
2023-03-16T19:31:58.018Z,55.39
2023-03-16T19:34:26.693Z,55.35
2023-03-16T19:36:56.542Z,55.90
2023-03-16T19:39:27.200Z,55.76
2023-03-16T19:41:56.919Z,55.72
2023-03-16T19:44:26.802Z,56.71
2023-03-16T19:46:55.796Z,56.61
2023-03-16T19:49:26.225Z,56.62
2023-03-16T19:51:55.945Z,57.53
2023-03-16T19:54:25.268Z,57.51
2023-03-16T19:56:56.461Z,57.35
2023-03-16T19:59:28.065Z,57.88
2023-03-16T20:01:56.496Z,57.86
2023-03-16T20:04:26.137Z,58.03
2023-03-16T20:06:55.001Z,57.93
2023-03-16T20:09:23.529Z,58.19
2023-03-16T20:11:52.654Z,57.96
2023-03-16T20:14:25.035Z,58.38
2023-03-16T20:16:53.782Z,58.89
2023-03-16T20:19:23.480Z,58.20
2023-03-16T20:21:52.294Z,58.13
2023-03-16T20:24:22.375Z,59.20
2023-03-16T20:26:51.617Z,58.86
2023-03-16T20:29:23.397Z,59.34
2023-03-16T20:31:53.663Z,58.55
2023-03-16T20:34:24.866Z,58.74
2023-03-16T20:36:53.348Z,58.13
2023-03-16T20:39:21.918Z,58.29
2023-03-16T20:41:50.619Z,59.21
2023-03-16T20:44:20.433Z,58.86
2023-03-16T20:46:49.234Z,58.77
2023-03-16T20:49:28.885Z,58.81
2023-03-16T20:51:58.771Z,59.43
2023-03-16T20:54:27.355Z,59.21
2023-03-16T20:56:55.832Z,59.64
2023-03-16T20:59:26.759Z,59.42
2023-03-16T21:01:56.408Z,60.32
2023-03-16T21:04:27.531Z,60.34
2023-03-16T21:06:57.069Z,61.25
2023-03-16T21:09:28.094Z,61.30
2023-03-16T21:11:56.622Z,61.45
2023-03-16T21:14:25.346Z,61.04
2023-03-16T21:16:54.717Z,61.10
2023-03-16T21:19:24.204Z,61.06
2023-03-16T21:21:53.231Z,61.43
2023-03-16T21:24:22.035Z,60.66
2023-03-16T21:26:52.438Z,61.26
2023-03-16T21:29:22.068Z,61.12
2023-03-16T21:31:50.657Z,61.91
2023-03-16T21:34:23.940Z,61.99
2023-03-16T21:36:52.519Z,62.33
2023-03-16T21:39:22.650Z,62.40
2023-03-16T21:41:52.623Z,61.46
2023-03-16T21:44:21.060Z,62.44
2023-03-16T21:46:49.804Z,62.14
2023-03-16T21:49:18.341Z,61.38
2023-03-16T21:51:46.761Z,61.43
2023-03-16T21:54:16.120Z,61.80
2023-03-16T21:56:44.838Z,61.79
2023-03-16T21:59:14.942Z,62.31
2023-03-16T22:01:58.662Z,62.50
2023-03-16T22:04:29.849Z,61.93
2023-03-16T22:06:58.252Z,62.52
2023-03-16T22:09:30.656Z,62.26
2023-03-16T22:11:59.074Z,61.70
2023-03-16T22:14:28.888Z,62.33
2023-03-16T22:16:57.999Z,62.50
2023-03-16T22:19:28.686Z,62.11
2023-03-16T22:21:57.835Z,61.88
2023-03-16T22:24:27.538Z,61.88
2023-03-16T22:26:56.805Z,62.36
2023-03-16T22:29:26.702Z,62.80
2023-03-16T22:31:58.188Z,62.81
2023-03-16T22:34:29.165Z,62.54
2023-03-16T22:36:58.132Z,63.04
2023-03-16T22:39:26.502Z,62.56
2023-03-16T22:41:54.991Z,62.64
2023-03-16T22:44:23.995Z,62.61
2023-03-16T22:46:52.463Z,63.10
2023-03-16T22:49:24.288Z,62.79
2023-03-16T22:51:54.124Z,63.14
2023-03-16T22:54:24.257Z,63.08
2023-03-16T22:56:52.965Z,63.24
2023-03-16T22:59:23.422Z,63.16
2023-03-16T23:01:51.954Z,63.27
2023-03-16T23:04:21.395Z,62.90
2023-03-16T23:06:54.608Z,62.99
2023-03-16T23:09:23.515Z,63.30
2023-03-16T23:11:54.113Z,63.64
2023-03-16T23:14:24.260Z,63.46
2023-03-16T23:16:52.766Z,63.37
2023-03-16T23:19:24.752Z,63.81
2023-03-16T23:21:56.958Z,63.36
2023-03-16T23:24:25.786Z,63.82
2023-03-16T23:26:55.060Z,63.07
2023-03-16T23:29:24.550Z,63.53
2023-03-16T23:31:54.311Z,63.80
2023-03-16T23:34:23.827Z,63.73
2023-03-16T23:36:52.856Z,63.76
2023-03-16T23:39:23.565Z,63.26
2023-03-16T23:41:52.447Z,63.53
2023-03-16T23:44:22.796Z,63.87
2023-03-16T23:46:51.572Z,63.19
2023-03-16T23:49:22.306Z,63.63
2023-03-16T23:51:51.137Z,63.38
2023-03-16T23:54:21.248Z,63.94
2023-03-16T23:56:51.626Z,63.67
2023-03-16T23:59:21.134Z,64.00
